createdAt,value
2023-05-05T00:00:14.293Z,1333.00
2023-05-05T00:01:14.282Z,1334.00
2023-05-05T00:02:14.331Z,1333.00
2023-05-05T00:03:14.395Z,1327.00
2023-05-05T00:04:14.325Z,1330.00
2023-05-05T00:05:14.259Z,1326.00
2023-05-05T00:06:14.280Z,1324.00
2023-05-05T00:07:14.309Z,1324.00
2023-05-05T00:08:14.265Z,1330.00
2023-05-05T00:09:14.267Z,1327.00
2023-05-05T00:10:14.296Z,1320.00
2023-05-05T00:11:14.325Z,1327.00
2023-05-05T00:12:14.275Z,1332.00
2023-05-05T00:13:14.325Z,1338.00
2023-05-05T00:14:14.314Z,1322.00
2023-05-05T00:15:14.339Z,1330.00
2023-05-05T00:16:14.309Z,1322.00
2023-05-05T00:17:14.426Z,1322.00
2023-05-05T00:18:14.284Z,1328.00
2023-05-05T00:19:14.336Z,1324.00
2023-05-05T00:20:14.331Z,1322.00
2023-05-05T00:21:14.285Z,1327.00
2023-05-05T00:22:14.305Z,1324.00
2023-05-05T00:23:14.332Z,1327.00
2023-05-05T00:24:14.298Z,1329.00
2023-05-05T00:25:14.311Z,1315.00
2023-05-05T00:26:14.332Z,1306.00
2023-05-05T00:27:14.313Z,1318.00
2023-05-05T00:28:14.361Z,1325.00
2023-05-05T00:29:14.331Z,1322.00
2023-05-05T00:30:14.358Z,1316.00
2023-05-05T00:31:14.415Z,1323.00
2023-05-05T00:32:14.339Z,1320.00
2023-05-05T00:33:14.334Z,1321.00
2023-05-05T00:34:14.353Z,1324.00
2023-05-05T00:35:14.346Z,1312.00
2023-05-05T00:36:14.372Z,1324.00
2023-05-05T00:37:14.378Z,1322.00
2023-05-05T00:38:14.379Z,1324.00
2023-05-05T00:39:14.403Z,1320.00
2023-05-05T00:40:14.394Z,1324.00
2023-05-05T00:41:14.413Z,1326.00
2023-05-05T00:42:14.424Z,1319.00
2023-05-05T00:43:14.397Z,1315.00
2023-05-05T00:44:14.411Z,1312.00
2023-05-05T00:45:14.429Z,1303.00
2023-05-05T00:46:14.568Z,1311.00
2023-05-05T00:47:14.433Z,1311.00
2023-05-05T00:48:14.445Z,1305.00
2023-05-05T00:49:14.489Z,1313.00
2023-05-05T00:50:14.445Z,1323.00
2023-05-05T00:51:14.466Z,1317.00
2023-05-05T00:52:14.468Z,1306.00
2023-05-05T00:53:14.478Z,1312.00
2023-05-05T00:54:14.453Z,1310.00
2023-05-05T00:55:14.478Z,1308.00
2023-05-05T00:56:14.484Z,1305.00
2023-05-05T00:57:14.518Z,1319.00
2023-05-05T00:58:14.494Z,1299.00
2023-05-05T00:59:14.512Z,1310.00
2023-05-05T01:00:14.543Z,1313.00
2023-05-05T01:01:14.542Z,1311.00
2023-05-05T01:02:14.538Z,1302.00
2023-05-05T01:03:14.549Z,1309.00
2023-05-05T01:04:14.521Z,1303.00
2023-05-05T01:05:14.521Z,1294.00
2023-05-05T01:06:14.544Z,1288.00
2023-05-05T01:07:14.531Z,1311.00
2023-05-05T01:08:14.538Z,1300.00
2023-05-05T01:09:14.550Z,1309.00
2023-05-05T01:10:20.192Z,1309.00
2023-05-05T01:11:15.542Z,1310.00
2023-05-05T01:12:14.556Z,1310.00
2023-05-05T01:13:14.565Z,1308.00
2023-05-05T01:14:14.518Z,1303.00
2023-05-05T01:15:14.501Z,1299.00
2023-05-05T01:16:14.526Z,1305.00
2023-05-05T01:17:14.495Z,1305.00
2023-05-05T01:18:14.487Z,1296.00
2023-05-05T01:19:14.483Z,1294.00
2023-05-05T01:20:14.488Z,1302.00
2023-05-05T01:21:14.454Z,1293.00
2023-05-05T01:22:14.460Z,1298.00
2023-05-05T01:23:14.439Z,1298.00
2023-05-05T01:24:14.426Z,1299.00
2023-05-05T01:25:14.432Z,1303.00
2023-05-05T01:26:14.425Z,1297.00
2023-05-05T01:27:14.466Z,1290.00
2023-05-05T01:28:14.416Z,1296.00
2023-05-05T01:29:14.393Z,1299.00
2023-05-05T01:30:14.417Z,1289.00
2023-05-05T01:31:14.394Z,1284.00
2023-05-05T01:32:14.393Z,1290.00
2023-05-05T01:33:14.365Z,1293.00
2023-05-05T01:34:14.370Z,1278.00
2023-05-05T01:35:14.348Z,1274.00
2023-05-05T01:36:14.353Z,1287.00
2023-05-05T01:37:14.338Z,1288.00
2023-05-05T01:38:14.377Z,1275.00
2023-05-05T01:39:14.372Z,1275.00
2023-05-05T01:40:14.342Z,1283.00
2023-05-05T01:41:14.299Z,1301.00
2023-05-05T01:42:14.340Z,1295.00
2023-05-05T01:43:14.342Z,1280.00
2023-05-05T01:44:14.349Z,1275.00
2023-05-05T01:45:14.373Z,1281.00
2023-05-05T01:46:14.476Z,1279.00
2023-05-05T01:47:14.381Z,1288.00
2023-05-05T01:48:14.425Z,1279.00
2023-05-05T01:49:14.443Z,1287.00
2023-05-05T01:50:14.433Z,1277.00
2023-05-05T01:51:14.498Z,1288.00
2023-05-05T01:52:14.464Z,1284.00
2023-05-05T01:53:14.495Z,1271.00
2023-05-05T01:54:14.502Z,1286.00
2023-05-05T01:55:14.503Z,1283.00
2023-05-05T01:56:14.527Z,1280.00
2023-05-05T01:57:14.537Z,1274.00
2023-05-05T01:58:14.573Z,1276.00
2023-05-05T01:59:14.595Z,1272.00
2023-05-05T02:00:14.572Z,1279.00
2023-05-05T02:01:14.614Z,1276.00
2023-05-05T02:02:14.597Z,1280.00
2023-05-05T02:03:14.797Z,1262.00
2023-05-05T02:04:14.650Z,1276.00
2023-05-05T02:05:14.635Z,1282.00
2023-05-05T02:06:14.666Z,1287.00
2023-05-05T02:07:14.691Z,1269.00
2023-05-05T02:08:14.707Z,1282.00
2023-05-05T02:09:14.691Z,1278.00
2023-05-05T02:10:14.719Z,1273.00
2023-05-05T02:11:14.757Z,1258.00
2023-05-05T02:12:14.764Z,1266.00
2023-05-05T02:13:14.962Z,1272.00
2023-05-05T02:14:14.763Z,1279.00
2023-05-05T02:15:14.796Z,1274.00
2023-05-05T02:16:14.921Z,1266.00
2023-05-05T02:17:14.834Z,1264.00
2023-05-05T02:18:14.834Z,1267.00
2023-05-05T02:19:14.818Z,1263.00
2023-05-05T02:20:14.843Z,1257.00
2023-05-05T02:21:14.869Z,1265.00
2023-05-05T02:22:14.858Z,1275.00
2023-05-05T02:23:14.880Z,1272.00
2023-05-05T02:24:14.893Z,1264.00
2023-05-05T02:25:14.937Z,1262.00
2023-05-05T02:26:14.917Z,1268.00
2023-05-05T02:27:14.968Z,1263.00
2023-05-05T02:28:14.970Z,1270.00
2023-05-05T02:29:14.962Z,1262.00
2023-05-05T02:30:14.989Z,1267.00
2023-05-05T02:31:15.025Z,1259.00
2023-05-05T02:32:15.005Z,1258.00
2023-05-05T02:33:15.022Z,1264.00
2023-05-05T02:34:15.044Z,1261.00
2023-05-05T02:35:15.060Z,1270.00
2023-05-05T02:36:15.081Z,1250.00
2023-05-05T02:37:15.092Z,1274.00
2023-05-05T02:38:15.135Z,1260.00
2023-05-05T02:39:15.141Z,1260.00
2023-05-05T02:40:15.150Z,1255.00
2023-05-05T02:41:15.183Z,1251.00
2023-05-05T02:42:15.177Z,1253.00
2023-05-05T02:43:15.259Z,1253.00
2023-05-05T02:44:15.219Z,1244.00
2023-05-05T02:45:15.266Z,1248.00
2023-05-05T02:46:15.299Z,1247.00
2023-05-05T02:47:15.290Z,1256.00
2023-05-05T02:48:15.302Z,1258.00
2023-05-05T02:49:15.313Z,1254.00
2023-05-05T02:50:15.347Z,1249.00
2023-05-05T02:51:15.351Z,1231.00
2023-05-05T02:52:15.364Z,1245.00
2023-05-05T02:53:15.391Z,1242.00
2023-05-05T02:54:15.393Z,1253.00
2023-05-05T02:55:15.429Z,1242.00
2023-05-05T02:56:15.444Z,1242.00
2023-05-05T02:57:15.442Z,1243.00
2023-05-05T02:58:15.489Z,1250.00
2023-05-05T02:59:16.366Z,1239.00
2023-05-05T03:00:15.510Z,1250.00
2023-05-05T03:01:15.567Z,1239.00
2023-05-05T03:02:15.572Z,1241.00
2023-05-05T03:03:15.697Z,1238.00
2023-05-05T03:04:15.602Z,1243.00
2023-05-05T03:05:15.606Z,1233.00
2023-05-05T03:06:15.646Z,1233.00
2023-05-05T03:07:15.647Z,1246.00
2023-05-05T03:08:15.695Z,1254.00
2023-05-05T03:09:15.718Z,1237.00
2023-05-05T03:10:15.725Z,1249.00
2023-05-05T03:11:15.739Z,1237.00
2023-05-05T03:12:15.788Z,1237.00
2023-05-05T03:13:15.826Z,1236.00
2023-05-05T03:14:15.811Z,1236.00
2023-05-05T03:15:15.841Z,1227.00
2023-05-05T03:16:15.909Z,1226.00
2023-05-05T03:17:15.884Z,1217.00
2023-05-05T03:18:15.900Z,1236.00
2023-05-05T03:19:15.937Z,1224.00
2023-05-05T03:20:15.962Z,1248.00
2023-05-05T03:21:16.030Z,1247.00
2023-05-05T03:22:16.025Z,1216.00
2023-05-05T03:23:16.046Z,1215.00
2023-05-05T03:24:16.044Z,1221.00
2023-05-05T03:25:16.065Z,1231.00
2023-05-05T03:26:16.094Z,1220.00
2023-05-05T03:27:16.122Z,1220.00
2023-05-05T03:28:16.154Z,1229.00
2023-05-05T03:29:16.177Z,1226.00
2023-05-05T03:30:16.216Z,1221.00
2023-05-05T03:31:16.276Z,1222.00
2023-05-05T03:32:16.359Z,1225.00
2023-05-05T03:33:16.302Z,1227.00
2023-05-05T03:34:16.305Z,1217.00
2023-05-05T03:35:16.313Z,1232.00
2023-05-05T03:36:16.361Z,1212.00
2023-05-05T03:37:16.377Z,1214.00
2023-05-05T03:38:16.412Z,1203.00
2023-05-05T03:39:16.440Z,1228.00
2023-05-05T03:40:16.457Z,1209.00
2023-05-05T03:41:16.487Z,1213.00
2023-05-05T03:42:16.498Z,1214.00
2023-05-05T03:43:16.568Z,1214.00
2023-05-05T03:44:16.557Z,1203.00
2023-05-05T03:45:16.594Z,1221.00
2023-05-05T03:46:16.655Z,1214.00
2023-05-05T03:47:16.633Z,1210.00
2023-05-05T03:48:16.650Z,1204.00
2023-05-05T03:49:16.681Z,1208.00
2023-05-05T03:50:16.753Z,1211.00
2023-05-05T03:51:16.715Z,1192.00
2023-05-05T03:52:16.749Z,1215.00
2023-05-05T03:53:16.861Z,1201.00
2023-05-05T03:54:16.830Z,1197.00
2023-05-05T03:55:16.846Z,1208.00
2023-05-05T03:56:16.893Z,1219.00
2023-05-05T03:57:16.926Z,1211.00
2023-05-05T03:58:16.957Z,1203.00
2023-05-05T03:59:16.967Z,1198.00
2023-05-05T04:00:17.028Z,1204.00
2023-05-05T04:01:17.045Z,1209.00
2023-05-05T04:02:18.615Z,1202.00
2023-05-05T04:03:17.219Z,1198.00
2023-05-05T04:04:17.134Z,1202.00
2023-05-05T04:05:17.144Z,1196.00
2023-05-05T04:06:17.193Z,1203.00
2023-05-05T04:07:17.231Z,1198.00
2023-05-05T04:08:17.224Z,1195.00
2023-05-05T04:09:17.257Z,1206.00
2023-05-05T04:10:17.300Z,1190.00
2023-05-05T04:11:17.298Z,1194.00
2023-05-05T04:12:17.331Z,1195.00
2023-05-05T04:13:17.389Z,1185.00
2023-05-05T04:14:17.400Z,1192.00
2023-05-05T04:15:17.430Z,1190.00
2023-05-05T04:16:17.456Z,1200.00
2023-05-05T04:17:17.507Z,1188.00
2023-05-05T04:18:17.542Z,1190.00
2023-05-05T04:19:17.551Z,1186.00
2023-05-05T04:20:17.572Z,1181.00
2023-05-05T04:21:17.601Z,1181.00
2023-05-05T04:22:17.630Z,1179.00
2023-05-05T04:23:17.699Z,1183.00
2023-05-05T04:24:17.685Z,1189.00
2023-05-05T04:25:17.732Z,1187.00
2023-05-05T04:26:17.788Z,1185.00
2023-05-05T04:27:17.810Z,1169.00
2023-05-05T04:28:19.660Z,1182.00
2023-05-05T04:29:17.834Z,1205.00
2023-05-05T04:30:17.813Z,1189.00
2023-05-05T04:31:17.799Z,1182.00
2023-05-05T04:32:17.773Z,1189.00
2023-05-05T04:33:17.806Z,1168.00
2023-05-05T04:34:17.782Z,1164.00
2023-05-05T04:35:17.759Z,1178.00
2023-05-05T04:36:17.767Z,1186.00
2023-05-05T04:37:17.754Z,1163.00
2023-05-05T04:38:17.777Z,1170.00
2023-05-05T04:39:17.746Z,1176.00
2023-05-05T04:40:17.745Z,1177.00
2023-05-05T04:41:17.758Z,1159.00
2023-05-05T04:42:17.732Z,1163.00
2023-05-05T04:43:17.704Z,1172.00
2023-05-05T04:44:17.682Z,1173.00
2023-05-05T04:45:17.692Z,1173.00
2023-05-05T04:46:17.705Z,1176.00
2023-05-05T04:47:17.691Z,1167.00
2023-05-05T04:48:17.654Z,1165.00
2023-05-05T04:49:17.667Z,1163.00
2023-05-05T04:50:17.680Z,1157.00
2023-05-05T04:51:17.638Z,1146.00
2023-05-05T04:52:17.649Z,1159.00
2023-05-05T04:53:17.637Z,1153.00
2023-05-05T04:54:17.639Z,1167.00
2023-05-05T04:55:17.604Z,1160.00
2023-05-05T04:56:17.628Z,1150.00
2023-05-05T04:57:17.594Z,1147.00
2023-05-05T04:58:17.615Z,1142.00
2023-05-05T04:59:17.598Z,1154.00
2023-05-05T05:00:17.602Z,1148.00
2023-05-05T05:01:17.579Z,1126.00
2023-05-05T05:02:17.610Z,1129.00
2023-05-05T05:03:17.628Z,1138.00
2023-05-05T05:04:17.541Z,1136.00
2023-05-05T05:05:17.554Z,1135.00
2023-05-05T05:06:17.541Z,1142.00
2023-05-05T05:07:17.524Z,1121.00
2023-05-05T05:08:17.573Z,1115.00
2023-05-05T05:09:17.523Z,1136.00
2023-05-05T05:10:17.534Z,1129.00
2023-05-05T05:11:17.519Z,1132.00
2023-05-05T05:12:17.531Z,1135.00
2023-05-05T05:13:17.702Z,1123.00
2023-05-05T05:14:17.522Z,1129.00
2023-05-05T05:15:17.478Z,1108.00
2023-05-05T05:16:17.504Z,1123.00
2023-05-05T05:17:17.482Z,1114.00
2023-05-05T05:18:17.493Z,1110.00
2023-05-05T05:19:17.483Z,1114.00
2023-05-05T05:20:17.467Z,1111.00
2023-05-05T05:21:17.430Z,1111.00
2023-05-05T05:22:17.434Z,1102.00
2023-05-05T05:23:17.456Z,1110.00
2023-05-05T05:24:17.421Z,1095.00
2023-05-05T05:25:17.417Z,1086.00
2023-05-05T05:26:17.647Z,1095.00
2023-05-05T05:27:17.441Z,1104.00
2023-05-05T05:28:17.383Z,1097.00
2023-05-05T05:29:17.449Z,1095.00
2023-05-05T05:30:17.401Z,1097.00
2023-05-05T05:31:17.488Z,1093.00
2023-05-05T05:32:17.403Z,1106.00
2023-05-05T05:33:17.355Z,1091.00
2023-05-05T05:34:17.532Z,1109.00
2023-05-05T05:35:17.394Z,1146.00
2023-05-05T05:36:17.669Z,1106.00
2023-05-05T05:37:17.366Z,1075.00
2023-05-05T05:38:17.351Z,1082.00
2023-05-05T05:39:17.594Z,1100.00
2023-05-05T05:40:17.370Z,1129.00
2023-05-05T05:41:17.381Z,1153.00
2023-05-05T05:42:17.415Z,1166.00
2023-05-05T05:43:17.499Z,1164.00
2023-05-05T05:44:17.383Z,1177.00
2023-05-05T05:45:17.467Z,1195.00
2023-05-05T05:46:17.561Z,1206.00
2023-05-05T05:47:17.554Z,1232.00
2023-05-05T05:48:17.658Z,1199.00
2023-05-05T05:49:17.677Z,1196.00
2023-05-05T05:50:17.734Z,1204.00
2023-05-05T05:51:17.862Z,1206.00
2023-05-05T05:52:17.873Z,1197.00
2023-05-05T05:53:17.967Z,1205.00
2023-05-05T05:54:17.992Z,1197.00
2023-05-05T05:55:18.094Z,1176.00
2023-05-05T05:56:18.143Z,1195.00
2023-05-05T05:57:18.207Z,1177.00
2023-05-05T05:58:18.230Z,1181.00
2023-05-05T05:59:18.305Z,1184.00
2023-05-05T06:00:18.375Z,1177.00
2023-05-05T06:01:18.424Z,1158.00
2023-05-05T06:02:18.543Z,1151.00
2023-05-05T06:03:18.743Z,1156.00
2023-05-05T06:04:18.624Z,1144.00
2023-05-05T06:05:18.691Z,1135.00
2023-05-05T06:06:19.206Z,1133.00
2023-05-05T06:07:18.799Z,1124.00
2023-05-05T06:08:19.185Z,1135.00
2023-05-05T06:09:18.885Z,1124.00
2023-05-05T06:10:27.887Z,1118.00
2023-05-05T06:11:19.972Z,1119.00
2023-05-05T06:12:18.918Z,1120.00
2023-05-05T06:13:18.933Z,1122.00
2023-05-05T06:14:20.152Z,1111.00
2023-05-05T06:15:18.914Z,1111.00
2023-05-05T06:16:18.944Z,1107.00
2023-05-05T06:17:18.898Z,1100.00
2023-05-05T06:18:18.940Z,1092.00
2023-05-05T06:19:18.873Z,1078.00
2023-05-05T06:20:18.857Z,1089.00
2023-05-05T06:21:18.952Z,1088.00
2023-05-05T06:22:18.874Z,1073.00
2023-05-05T06:23:18.874Z,1049.00
2023-05-05T06:24:18.877Z,1073.00
2023-05-05T06:25:18.952Z,1047.00
2023-05-05T06:26:18.960Z,1058.00
2023-05-05T06:27:18.978Z,1036.00
2023-05-05T06:28:19.168Z,1031.00
2023-05-05T06:29:19.038Z,1016.00
2023-05-05T06:30:19.119Z,989.00
2023-05-05T06:31:19.143Z,969.00
2023-05-05T06:32:19.108Z,1003.00
2023-05-05T06:33:19.147Z,984.00
2023-05-05T06:34:19.187Z,978.00
2023-05-05T06:35:19.204Z,958.00
2023-05-05T06:36:19.232Z,972.00
2023-05-05T06:37:19.236Z,933.00
2023-05-05T06:38:19.659Z,977.00
2023-05-05T06:39:19.272Z,985.00
2023-05-05T06:40:19.293Z,989.00
2023-05-05T06:41:19.302Z,988.00
2023-05-05T06:42:19.313Z,949.00
2023-05-05T06:43:19.352Z,930.00
2023-05-05T06:44:19.319Z,940.00
2023-05-05T06:45:19.336Z,946.00
2023-05-05T06:46:19.364Z,922.00
2023-05-05T06:47:19.699Z,928.00
2023-05-05T06:48:19.353Z,920.00
2023-05-05T06:49:19.386Z,952.00
2023-05-05T06:50:19.364Z,924.00
2023-05-05T06:51:19.439Z,930.00
2023-05-05T06:52:19.451Z,938.00
2023-05-05T06:53:19.399Z,918.00
2023-05-05T06:54:19.493Z,896.00
2023-05-05T06:55:19.402Z,906.00
2023-05-05T06:56:19.476Z,913.00
2023-05-05T06:57:19.418Z,869.00
2023-05-05T06:58:19.415Z,918.00
2023-05-05T06:59:19.413Z,857.00
2023-05-05T07:00:19.447Z,859.00
2023-05-05T07:01:19.612Z,823.00
2023-05-05T07:02:19.476Z,846.00
2023-05-05T07:03:19.627Z,808.00
2023-05-05T07:04:19.550Z,805.00
2023-05-05T07:05:19.441Z,796.00
2023-05-05T07:06:19.447Z,765.00
2023-05-05T07:07:19.471Z,803.00
2023-05-05T07:08:19.470Z,762.00
2023-05-05T07:09:19.504Z,750.00
2023-05-05T07:10:19.466Z,735.00
2023-05-05T07:11:19.495Z,720.00
2023-05-05T07:12:19.558Z,712.00
2023-05-05T07:13:19.690Z,699.00
2023-05-05T07:14:20.955Z,680.00
2023-05-05T07:15:28.769Z,711.00
2023-05-05T07:16:20.600Z,712.00
2023-05-05T07:17:19.544Z,700.00
2023-05-05T07:18:19.557Z,674.00
2023-05-05T07:19:19.535Z,649.00
2023-05-05T07:20:19.615Z,649.00
2023-05-05T07:21:19.564Z,636.00
2023-05-05T07:22:19.555Z,623.00
2023-05-05T07:23:19.517Z,616.00
2023-05-05T07:24:19.550Z,621.00
2023-05-05T07:25:19.514Z,608.00
2023-05-05T07:26:19.558Z,613.00
2023-05-05T07:27:19.492Z,606.00
2023-05-05T07:28:19.568Z,597.00
2023-05-05T07:29:19.775Z,600.00
2023-05-05T07:30:19.980Z,604.00
2023-05-05T07:31:19.690Z,561.00
2023-05-05T07:32:19.730Z,537.00
2023-05-05T07:33:19.740Z,548.00
2023-05-05T07:34:19.710Z,537.00
2023-05-05T07:35:19.682Z,546.00
2023-05-05T07:36:19.657Z,523.00
2023-05-05T07:37:19.664Z,558.00
2023-05-05T07:38:19.652Z,590.00
2023-05-05T07:39:19.685Z,612.00
2023-05-05T07:40:19.682Z,605.00
2023-05-05T07:41:19.667Z,645.00
2023-05-05T07:42:19.737Z,663.00
2023-05-05T07:43:19.718Z,671.00
2023-05-05T07:44:19.766Z,736.00
2023-05-05T07:45:19.788Z,750.00
2023-05-05T07:46:19.871Z,808.00
2023-05-05T07:47:20.079Z,801.00
2023-05-05T07:48:19.920Z,850.00
2023-05-05T07:49:19.994Z,887.00
2023-05-05T07:50:20.078Z,880.00
2023-05-05T07:51:20.154Z,921.00
2023-05-05T07:52:25.246Z,950.00
2023-05-05T07:53:21.141Z,953.00
2023-05-05T07:54:20.124Z,965.00
2023-05-05T07:55:20.149Z,974.00
2023-05-05T07:56:21.768Z,1026.00
2023-05-05T07:57:20.142Z,1110.00
2023-05-05T07:58:20.102Z,1126.00
2023-05-05T07:59:20.113Z,1133.00
2023-05-05T08:00:20.194Z,1157.00
2023-05-05T08:01:20.144Z,1171.00
2023-05-05T08:02:20.111Z,1174.00
2023-05-05T08:03:20.264Z,1185.00
2023-05-05T08:04:20.133Z,1193.00
2023-05-05T08:05:20.045Z,1184.00
2023-05-05T08:06:20.094Z,1196.00
2023-05-05T08:07:20.115Z,1199.00
2023-05-05T08:08:20.137Z,1235.00
2023-05-05T08:09:20.178Z,1240.00
2023-05-05T08:10:20.188Z,1235.00
2023-05-05T08:11:20.297Z,1212.00
2023-05-05T08:12:20.207Z,1231.00
2023-05-05T08:13:20.548Z,1237.00
2023-05-05T08:14:20.269Z,1245.00
2023-05-05T08:15:20.290Z,1214.00
2023-05-05T08:16:20.530Z,1214.00
2023-05-05T08:17:20.345Z,1188.00
2023-05-05T08:18:20.340Z,1194.00
2023-05-05T08:19:28.615Z,1169.00
2023-05-05T08:20:21.366Z,1169.00
2023-05-05T08:21:20.328Z,1138.00
2023-05-05T08:22:20.337Z,1168.00
2023-05-05T08:23:20.304Z,1202.00
2023-05-05T08:24:20.303Z,1280.00
2023-05-05T08:25:20.354Z,1278.00
2023-05-05T08:26:20.285Z,1300.00
2023-05-05T08:27:20.315Z,1182.00
2023-05-05T08:28:20.275Z,1098.00
2023-05-05T08:29:20.279Z,1006.00
2023-05-05T08:30:20.255Z,933.00
2023-05-05T08:31:27.425Z,860.00
2023-05-05T08:32:20.295Z,826.00
2023-05-05T08:33:20.269Z,741.00
2023-05-05T08:34:20.300Z,708.00
2023-05-05T08:35:20.268Z,674.00
2023-05-05T08:36:20.245Z,653.00
2023-05-05T08:37:20.231Z,654.00
2023-05-05T08:38:20.252Z,633.00
2023-05-05T08:39:20.289Z,609.00
2023-05-05T08:40:20.207Z,594.00
2023-05-05T08:41:20.194Z,550.00
2023-05-05T08:42:35.560Z,500.00
2023-05-05T08:43:21.184Z,501.00
2023-05-05T08:44:20.272Z,506.00
2023-05-05T08:45:20.163Z,496.00
2023-05-05T08:46:20.236Z,477.00
2023-05-05T08:47:20.212Z,474.00
2023-05-05T08:48:20.147Z,522.00
2023-05-05T08:49:20.135Z,562.00
2023-05-05T08:50:20.166Z,580.00
2023-05-05T08:51:20.134Z,589.00
2023-05-05T08:52:20.148Z,617.00
2023-05-05T08:53:20.144Z,639.00
2023-05-05T08:54:20.114Z,646.00
2023-05-05T08:55:20.087Z,663.00
2023-05-05T08:56:20.086Z,703.00
2023-05-05T08:57:20.076Z,690.00
2023-05-05T08:58:20.087Z,718.00
2023-05-05T08:59:20.112Z,746.00
2023-05-05T09:00:20.099Z,782.00
2023-05-05T09:01:20.127Z,831.00
2023-05-05T09:02:20.217Z,831.00
2023-05-05T09:03:20.278Z,820.00
2023-05-05T09:04:20.174Z,813.00
2023-05-05T09:05:20.203Z,773.00
2023-05-05T09:06:20.210Z,685.00
2023-05-05T09:07:20.242Z,719.00
2023-05-05T09:08:20.247Z,742.00
2023-05-05T09:09:20.279Z,753.00
2023-05-05T09:10:20.331Z,750.00
2023-05-05T09:11:20.316Z,794.00
2023-05-05T09:12:20.335Z,779.00
2023-05-05T09:13:20.407Z,766.00
2023-05-05T09:14:20.361Z,764.00
2023-05-05T09:15:20.381Z,789.00
2023-05-05T09:16:20.429Z,769.00
2023-05-05T09:17:20.409Z,762.00
2023-05-05T09:18:20.415Z,731.00
2023-05-05T09:19:20.450Z,747.00
2023-05-05T09:20:20.432Z,771.00
2023-05-05T09:21:20.452Z,812.00
2023-05-05T09:22:20.441Z,758.00
2023-05-05T09:23:20.466Z,677.00
2023-05-05T09:24:20.485Z,635.00
2023-05-05T09:25:20.484Z,608.00
2023-05-05T09:26:20.485Z,644.00
2023-05-05T09:27:20.500Z,681.00
2023-05-05T09:28:20.517Z,724.00
2023-05-05T09:29:20.545Z,1067.00
2023-05-05T09:30:20.583Z,1211.00
2023-05-05T09:31:20.573Z,1229.00
2023-05-05T09:32:20.541Z,1044.00
2023-05-05T09:33:20.629Z,1007.00
2023-05-05T09:34:20.580Z,956.00
2023-05-05T09:35:20.697Z,940.00
2023-05-05T09:36:20.565Z,756.00
2023-05-05T09:37:20.586Z,616.00
2023-05-05T09:38:20.601Z,529.00
2023-05-05T09:39:20.632Z,499.00
2023-05-05T09:40:20.729Z,518.00
2023-05-05T09:41:20.669Z,578.00
2023-05-05T09:42:20.672Z,564.00
2023-05-05T09:43:20.666Z,580.00
2023-05-05T09:44:20.811Z,484.00
2023-05-05T09:45:20.724Z,546.00
2023-05-05T09:46:20.788Z,512.00
2023-05-05T09:47:29.355Z,511.00
2023-05-05T09:48:21.762Z,512.00
2023-05-05T09:49:20.754Z,526.00
2023-05-05T09:50:20.886Z,493.00
2023-05-05T09:51:20.745Z,403.00
2023-05-05T09:52:20.680Z,400.00
2023-05-05T09:53:20.687Z,400.00
2023-05-05T09:54:20.683Z,400.00
2023-05-05T09:55:20.656Z,400.00
2023-05-05T09:56:20.655Z,502.00
2023-05-05T09:57:20.654Z,505.00
2023-05-05T09:58:20.717Z,675.00
2023-05-05T09:59:20.696Z,866.00
2023-05-05T10:00:20.665Z,687.00
2023-05-05T10:01:20.686Z,574.00
2023-05-05T10:02:20.636Z,550.00
2023-05-05T10:03:20.606Z,538.00
2023-05-05T10:04:20.891Z,521.00
2023-05-05T10:05:20.688Z,560.00
2023-05-05T10:06:20.602Z,517.00
2023-05-05T10:07:20.618Z,558.00
2023-05-05T10:08:20.606Z,706.00
2023-05-05T10:09:20.602Z,652.00
2023-05-05T10:10:20.573Z,785.00
2023-05-05T10:11:20.564Z,780.00
2023-05-05T10:12:20.539Z,655.00
2023-05-05T10:13:20.552Z,561.00
2023-05-05T10:14:20.598Z,523.00
2023-05-05T10:15:20.580Z,520.00
2023-05-05T10:16:20.623Z,540.00
2023-05-05T10:17:20.708Z,626.00
2023-05-05T10:18:21.421Z,599.00
2023-05-05T10:19:20.714Z,660.00
2023-05-05T10:20:20.671Z,727.00
2023-05-05T10:21:20.725Z,818.00
2023-05-05T10:22:20.805Z,873.00
2023-05-05T10:23:21.180Z,982.00
2023-05-05T10:24:20.717Z,1089.00
2023-05-05T10:25:20.872Z,1535.00
2023-05-05T10:26:20.851Z,1981.00
2023-05-05T10:27:20.778Z,1812.00
2023-05-05T10:28:21.025Z,1223.00
2023-05-05T10:29:20.776Z,1153.00
2023-05-05T10:30:20.803Z,877.00
2023-05-05T10:31:26.493Z,619.00
2023-05-05T10:34:20.932Z,400.00
2023-05-05T10:35:20.834Z,427.00
2023-05-05T10:36:20.824Z,515.00
2023-05-05T10:37:20.800Z,553.00
2023-05-05T10:38:20.801Z,557.00
2023-05-05T10:39:20.818Z,574.00
2023-05-05T10:40:20.773Z,613.00
2023-05-05T10:41:20.751Z,590.00
2023-05-05T10:42:20.732Z,608.00
2023-05-05T10:43:20.808Z,586.00
2023-05-05T10:44:20.738Z,527.00
2023-05-05T10:45:20.860Z,523.00
2023-05-05T10:46:20.770Z,609.00
2023-05-05T10:47:20.705Z,731.00
2023-05-05T10:48:20.746Z,856.00
2023-05-05T10:49:20.712Z,902.00
2023-05-05T10:50:20.809Z,891.00
2023-05-05T10:51:31.109Z,936.00
2023-05-05T10:52:21.695Z,938.00
2023-05-05T10:53:20.688Z,940.00
2023-05-05T10:54:20.741Z,962.00
2023-05-05T10:55:20.761Z,960.00
2023-05-05T10:56:20.652Z,990.00
2023-05-05T10:57:20.652Z,894.00
2023-05-05T10:58:20.650Z,911.00
2023-05-05T10:59:20.627Z,914.00
2023-05-05T11:00:20.629Z,950.00
2023-05-05T11:01:20.694Z,994.00
2023-05-05T11:02:20.604Z,1015.00
2023-05-05T11:03:20.659Z,1037.00
2023-05-05T11:04:20.597Z,976.00
2023-05-05T11:05:20.663Z,940.00
2023-05-05T11:06:20.598Z,970.00
2023-05-05T11:07:20.621Z,999.00
2023-05-05T11:08:20.580Z,1138.00
2023-05-05T11:09:20.603Z,1288.00
2023-05-05T11:10:20.872Z,1187.00
2023-05-05T11:11:20.613Z,1305.00
2023-05-05T11:12:20.594Z,1373.00
2023-05-05T11:13:20.539Z,1443.00
2023-05-05T11:14:20.521Z,1539.00
2023-05-05T11:15:20.515Z,1457.00
2023-05-05T11:16:20.535Z,1437.00
2023-05-05T11:17:20.498Z,1312.00
2023-05-05T11:18:20.526Z,1338.00
2023-05-05T11:19:20.484Z,1516.00
2023-05-05T11:20:20.526Z,1617.00
2023-05-05T11:21:20.489Z,1680.00
2023-05-05T11:22:20.501Z,1714.00
2023-05-05T11:23:20.509Z,1728.00
2023-05-05T11:24:20.472Z,1744.00
2023-05-05T11:25:20.491Z,1763.00
2023-05-05T11:26:20.452Z,1755.00
2023-05-05T11:27:20.542Z,1772.00
2023-05-05T11:28:20.444Z,1769.00
2023-05-05T11:29:20.452Z,1770.00
2023-05-05T11:30:20.427Z,1784.00
2023-05-05T11:31:20.449Z,1748.00
2023-05-05T11:32:20.407Z,1731.00
2023-05-05T11:33:20.843Z,1733.00
2023-05-05T11:34:20.404Z,1773.00
2023-05-05T11:35:20.400Z,1777.00
2023-05-05T11:36:20.377Z,1787.00
2023-05-05T11:37:20.363Z,1771.00
2023-05-05T11:38:20.369Z,1786.00
2023-05-05T11:39:20.397Z,1810.00
2023-05-05T11:40:20.361Z,1819.00
2023-05-05T11:41:20.356Z,1828.00
2023-05-05T11:42:20.380Z,1814.00
2023-05-05T11:43:20.520Z,1833.00
2023-05-05T11:44:20.431Z,1833.00
2023-05-05T11:45:20.510Z,1826.00
2023-05-05T11:46:20.510Z,1842.00
2023-05-05T11:47:20.487Z,1844.00
2023-05-05T11:48:20.520Z,1850.00
2023-05-05T11:49:20.551Z,1882.00
2023-05-05T11:50:20.581Z,1875.00
2023-05-05T11:51:20.601Z,1908.00
2023-05-05T11:52:20.632Z,1904.00
2023-05-05T11:53:20.656Z,1892.00
2023-05-05T11:54:20.681Z,1902.00
2023-05-05T11:55:20.696Z,1892.00
2023-05-05T11:56:20.722Z,1908.00
2023-05-05T11:57:20.753Z,1905.00
2023-05-05T11:58:20.801Z,1906.00
2023-05-05T11:59:20.858Z,1910.00
2023-05-05T12:00:20.828Z,1909.00
2023-05-05T12:01:20.846Z,1916.00
2023-05-05T12:02:20.897Z,1912.00
2023-05-05T12:03:20.988Z,1924.00
2023-05-05T12:04:20.918Z,1924.00
2023-05-05T12:05:20.949Z,1922.00
2023-05-05T12:06:20.979Z,1909.00
2023-05-05T12:07:21.019Z,1915.00
2023-05-05T12:08:21.007Z,1910.00
2023-05-05T12:09:21.043Z,1930.00
2023-05-05T12:10:21.065Z,1944.00
2023-05-05T12:11:21.078Z,1928.00
2023-05-05T12:12:21.108Z,1941.00
2023-05-05T12:13:21.310Z,1944.00
2023-05-05T12:14:21.159Z,1956.00